0NC7 weather

Public forecast

Using degrees Fahrenheit for public forecast. Weather courtesy of forecast.io.

Closest aviation weather report (METAR) to Lindsay Airport

Closest report is Rockingham County NC Shiloh Airport, 8.6 nm (15.8 km) NE. Retrieved 2020/08/08 23:35 UTC (24 minutes ago):

KSIF 082335Z AUTO 00000KT 7SM CLR 28/23 A3012 RMK AO2 T02790225

Closest aviation forecast (TAF) to Lindsay Airport

Closest forecast is Piedmont Triad International Airport, 15.8 nm (29.3 km) S. Retrieved 2020/08/08 18:42 UTC (5 hours ago):

TAF KGSO 081740Z 0818/0918 VRB05KT P6SM VCTS SCT025 BKN040CB FM090600 00000KT P6SM SCT250 TEMPO 0908/0912 2SM BR SCT003 FM091200 VRB03KT P6SM SCT015